Wauregan, Connecticut
Current Conditions -  °F | °C
As of 6:32 AM on Friday 24 Oct 2014 (Local Time) from KIJD Reporting Station
Light Rain Light Rain  
Wind Chill: 50°   Ceiling: 1500
Heat Index: 50°   Visibility: 10mi
Dew Point: 45°   Wind: 8mph
Humidity: 83%   Direction: 330°NNW
Pressure: 29.73"   Gusts: NA
Location:  41.75°N, 71.91°W
Report Text: KIJD 241032Z AUTO 33007KT 10SM -RA OVC015 10/07 A2973 RMK AO2 RAB07 P0000 T01000072
Loading
Personal Weather Stations






























Interactive Weather Map New forecast layout! Learn more

10-Day Weather Forecast

Advertisements
Track Severe Weather on mobile